Iron Lady — WTK5059 — position and weather

sailwx.info

Track history (hours):
 
Tides and Currents Weather Stations Pressure Air Temp Water Temp Dewpoint Dewpoint Depression Visibility Wind Speed Wind Dir Waves Ship Positions

Iron Lady

Owner: IRON LADY INC, SOUTH BEND, WA. More information available from US FCC via Universal Licensing System and Coast Guard Vessel Documentation Center.

Last reported at 2017-Aug-12 20:45 UTC. Time now 2017-Dec-15 10:18 UTC.
Position N 46°42' W 123°56'.
Warning: this ship's position is months out of date.

Type: Fishing. MMSI: 367037240.

Date/timePositionNaut miles runAvg speedWind from/ knotsBaromVisibWave heightAir tempDewpointWater temp
2017-Aug-12 20:45N 46°42' W 123°56'310.4
2017-Aug-12 20:28N 46°42' W 124°00'510.8
2017-Aug-12 20:00N 46°44' W 124°07'3 6.9
2017-Aug-12 19:30N 46°41' W 124°09'5 9.6
2017-Aug-12 19:01N 46°36' W 124°08'1112.2
2017-Aug-12 18:06N 46°25' W 124°08'0 0.7
2017-Aug-12 17:48N 46°25' W 124°08'3 9.3
2017-Aug-12 17:30N 46°22' W 124°07'5 9.1
2017-Aug-12 17:00N 46°18' W 124°07'4 7.5
2017-Aug-12 16:30N 46°15' W 124°03'713.0
2017-Aug-12 16:00N 46°12' W 123°55'2 3.2
2017-Aug-12 15:30N 46°10' W 123°55'0 0.0
2017-Aug-12 15:00N 46°10' W 123°55'0 0.0
2017-Aug-12 14:30N 46°10' W 123°55'0 0.0
2017-Aug-12 14:01N 46°10' W 123°55'0 0.0
2017-Aug-12 13:30N 46°10' W 123°55'0 0.0
2017-Aug-12 13:00N 46°10' W 123°55'0 0.0
2017-Aug-12 12:30N 46°10' W 123°55'0 0.0
2017-Aug-12 12:00N 46°10' W 123°55'0 0.0
2017-Aug-12 11:30N 46°10' W 123°55'0 0.0
2017-Aug-12 11:00N 46°10' W 123°55'0 0.0
2017-Aug-12 10:31N 46°10' W 123°55'0 0.0
2017-Aug-12 10:00N 46°10' W 123°55'0 0.0
2017-Aug-12 09:30N 46°10' W 123°55'0 0.0
2017-Aug-12 09:01N 46°10' W 123°55'0 0.0
2017-Aug-12 08:30N 46°10' W 123°55'0 0.0
2017-Aug-12 08:00N 46°10' W 123°55'0 0.0
2017-Aug-12 07:30N 46°10' W 123°55'0 0.0
2017-Aug-12 07:00N 46°10' W 123°55'0 0.0
2017-Aug-12 06:30N 46°10' W 123°55'0 0.0
2017-Aug-12 06:00N 46°10' W 123°55'0 0.0
2017-Aug-12 05:31N 46°10' W 123°55'0 0.0
2017-Aug-12 05:00N 46°10' W 123°55'0 0.0
2017-Aug-12 04:30N 46°10' W 123°55'0 0.0
2017-Aug-12 04:00N 46°10' W 123°55'0 0.0
2017-Aug-12 03:30N 46°10' W 123°55'0 0.0
2017-Aug-12 03:00N 46°10' W 123°55'0 0.0
2017-Aug-12 02:30N 46°10' W 123°55'0 0.0
2017-Aug-12 02:00N 46°10' W 123°55'0 0.0
2017-Aug-12 01:31N 46°10' W 123°55'0 0.0
2017-Aug-12 01:00N 46°10' W 123°55'0 0.0
2017-Aug-12 00:30N 46°10' W 123°55'0 0.0
2017-Aug-12 00:00N 46°10' W 123°55'0 0.0
2017-Aug-11 23:31N 46°10' W 123°55'0 0.0
2017-Aug-11 23:00N 46°10' W 123°55'0 0.0
2017-Aug-11 22:31N 46°10' W 123°55'0 0.0
2017-Aug-11 22:00N 46°10' W 123°55'0 0.0
2017-Aug-11 21:30N 46°10' W 123°55'0 0.0
2017-Aug-11 21:00N 46°10' W 123°55'0 0.0
2017-Aug-11 20:30N 46°10' W 123°55'0 0.0
2017-Aug-11 20:01N 46°10' W 123°55'0 0.0
2017-Aug-11 19:30N 46°10' W 123°55'0 0.0
2017-Aug-11 19:00N 46°10' W 123°55'0 0.0
2017-Aug-11 18:30N 46°10' W 123°55'0 0.0
2017-Aug-11 18:00N 46°10' W 123°55'0 0.0
2017-Aug-11 17:30N 46°10' W 123°55'0 0.0
2017-Aug-11 17:00N 46°10' W 123°55'0 0.0
2017-Aug-11 16:30N 46°10' W 123°55'0 0.0
2017-Aug-11 16:00N 46°10' W 123°55'0 0.0
2017-Aug-11 15:30N 46°10' W 123°55'0 0.0
2017-Aug-11 15:00N 46°10' W 123°55'0 0.0
2017-Aug-11 14:30N 46°10' W 123°55'0 0.0
2017-Aug-11 13:31N 46°10' W 123°55'0 0.0
2017-Aug-11 13:00N 46°10' W 123°55'0 0.0
2017-Aug-11 12:30N 46°10' W 123°55'0 0.0
2017-Aug-11 12:01N 46°10' W 123°55'0 0.0
2017-Aug-11 11:30N 46°10' W 123°55'0 0.0
2017-Aug-11 11:00N 46°10' W 123°55'0 0.0
2017-Aug-11 10:30N 46°10' W 123°55'0 0.0
2017-Aug-11 10:00N 46°10' W 123°55'0 0.0
2017-Aug-11 09:30N 46°10' W 123°55'0 0.0
2017-Aug-11 09:00N 46°10' W 123°55'0 0.0
2017-Aug-11 08:31N 46°10' W 123°55'0 0.0
2017-Aug-11 08:00N 46°10' W 123°55'0 0.0
2017-Aug-11 07:31N 46°10' W 123°55'0 0.0
2017-Aug-11 07:00N 46°10' W 123°55'0 0.0
2017-Aug-11 06:30N 46°10' W 123°55'0 0.0
2017-Aug-11 06:00N 46°10' W 123°55'0 0.0
2017-Aug-11 05:30N 46°10' W 123°55'0 0.0
2017-Aug-11 05:00N 46°10' W 123°55'0 0.0
2017-Aug-11 04:30N 46°10' W 123°55'0 0.0
2017-Aug-11 04:00N 46°10' W 123°55'0 0.0
2017-Aug-11 03:30N 46°10' W 123°55'0 0.0
2017-Aug-11 03:00N 46°10' W 123°55'0 0.0
2017-Aug-11 02:31N 46°10' W 123°55'0 0.0
2017-Aug-11 02:01N 46°10' W 123°55'0 0.0
2017-Aug-11 01:30N 46°10' W 123°55'0 0.0
2017-Aug-11 01:00N 46°10' W 123°55'0 0.0
2017-Aug-11 00:30N 46°10' W 123°55'0 0.0
2017-Aug-11 00:00N 46°10' W 123°55'0 0.0
2017-Aug-10 23:30N 46°10' W 123°55'0 0.0
2017-Aug-10 23:01N 46°10' W 123°55'0 0.0
2017-Aug-10 22:31N 46°10' W 123°55'0 0.2
2017-Aug-10 22:00N 46°10' W 123°55'0 0.0
2017-Aug-10 21:30N 46°10' W 123°55'0 0.0
2017-Aug-10 21:00N 46°10' W 123°55'2 3.4
2017-Aug-10 20:30N 46°11' W 123°53'1 2.2
2017-Aug-10 20:00N 46°11' W 123°52'0 0.0
2017-Aug-10 19:30N 46°11' W 123°52'1 2.5
2017-Aug-10 19:00N 46°11' W 123°54'1 2.7
2017-Aug-10 18:30N 46°10' W 123°55'0 0.0
2017-Aug-10 18:01N 46°10' W 123°55'0 0.0
2017-Aug-10 17:30N 46°10' W 123°55'0 0.0
2017-Aug-10 17:00N 46°10' W 123°55'0 0.0
2017-Aug-10 16:30N 46°10' W 123°55'0 0.0
2017-Aug-10 16:00N 46°10' W 123°55'0 0.0
2017-Aug-10 15:30N 46°10' W 123°55'0 0.0
2017-Aug-10 15:00N 46°10' W 123°55'0 0.0
2017-Aug-10 14:31N 46°10' W 123°55'0 0.0
2017-Aug-10 14:00N 46°10' W 123°55'0 0.0
2017-Aug-10 13:31N 46°10' W 123°55'0 0.0
2017-Aug-10 13:00N 46°10' W 123°55'0 0.2
2017-Aug-10 12:30N 46°10' W 123°55'0 0.0
2017-Aug-10 12:00N 46°10' W 123°55'0 0.0
2017-Aug-10 11:30N 46°10' W 123°55'0 0.0
2017-Aug-10 11:00N 46°10' W 123°55'0 0.0
2017-Aug-10 10:30N 46°10' W 123°55'0 0.0
2017-Aug-10 10:00N 46°10' W 123°55'0 0.0
2017-Aug-10 09:30N 46°10' W 123°55'0 0.0
2017-Aug-10 09:00N 46°10' W 123°55'0 0.0
2017-Aug-10 08:31N 46°10' W 123°55'0 0.0
2017-Aug-10 08:00N 46°10' W 123°55'0 0.0
2017-Aug-10 07:31N 46°10' W 123°55'0 0.0
2017-Aug-10 07:00N 46°10' W 123°55'0 0.0
2017-Aug-10 06:30N 46°10' W 123°55'0 0.0
2017-Aug-10 06:00N 46°10' W 123°55'0 0.0
2017-Aug-10 05:30N 46°10' W 123°55'0 0.0
2017-Aug-10 05:00N 46°10' W 123°55'0 0.0
2017-Aug-10 04:30N 46°10' W 123°55'0 0.0
2017-Aug-10 04:00N 46°10' W 123°55'0 0.0
2017-Aug-10 03:30N 46°10' W 123°55'1 1.9
2017-Aug-10 03:00N 46°11' W 123°54'3 5.6
2017-Aug-10 02:30N 46°13' W 123°58'2 4.6
2017-Aug-10 02:00N 46°14' W 123°60'2 4.0
2017-Aug-10 01:30N 46°15' W 124°03'3 5.2
2017-Aug-10 01:01N 46°16' W 124°06'5 8.9
2017-Aug-10 00:30N 46°20' W 124°09'5 8.9
2017-Aug-09 23:59N 46°25' W 124°11'5 8.3
2017-Aug-09 23:24N 46°29' W 124°13'3 8.7
2017-Aug-09 23:01N 46°32' W 124°15'811.8
2017-Aug-09 22:18N 46°40' W 124°20'311.2
2017-Aug-09 21:59N 46°43' W 124°21'1 1.5
2017-Aug-09 21:30N 46°44' W 124°22'5 8.2
2017-Aug-09 20:54N 46°49' W 124°25'3 8.1
2017-Aug-09 20:29N 46°52' W 124°26'4 8.1
2017-Aug-09 20:00N 46°56' W 124°28'4 7.9
2017-Aug-09 19:30N 46°59' W 124°29'4 7.8
2017-Aug-09 18:59N 47°03' W 124°31'4 7.6
2017-Aug-09 18:30N 47°07' W 124°33'4 7.8
2017-Aug-09 17:57N 47°11' W 124°36'9 0.7
2017-Aug-09 05:21N 47°18' W 124°43'2 4.8
2017-Aug-09 04:56N 47°16' W 124°45'1 1.8
2017-Aug-09 04:30N 47°16' W 124°45'5 2.7
2017-Aug-09 02:34N 47°11' W 124°47'0 2.8
2017-Aug-09 02:23N 47°10' W 124°47'7 4.7
2017-Aug-09 00:50N 47°03' W 124°44'3 7.4
2017-Aug-09 00:30N 47°01' W 124°42'6 7.5
2017-Aug-08 23:44N 46°55' W 124°39'2 7.7
2017-Aug-08 23:30N 46°54' W 124°39'3 4.7
2017-Aug-08 22:53N 46°51' W 124°37'1 2.7
2017-Aug-08 22:31N 46°50' W 124°36'2 2.8
2017-Aug-08 21:41N 46°48' W 124°35'1 2.7
2017-Aug-08 21:30N 46°48' W 124°34'1 2.7
2017-Aug-08 21:00N 46°47' W 124°33'1 2.7
2017-Aug-08 20:29N 46°45' W 124°32'1 2.8
2017-Aug-08 20:00N 46°44' W 124°31'2 4.8
2017-Aug-08 19:30N 46°42' W 124°33'4 8.0
2017-Aug-08 19:00N 46°40' W 124°38'4 8.2
2017-Aug-08 18:30N 46°38' W 124°43'1 2.0
2017-Aug-08 18:01N 46°38' W 124°45'1 1.3
2017-Aug-08 17:30N 46°38' W 124°45'1 2.2
2017-Aug-08 17:00N 46°38' W 124°47'1 2.1
2017-Aug-08 16:30N 46°39' W 124°48'1 2.1
2017-Aug-08 16:00N 46°40' W 124°49'1 2.3
2017-Aug-08 15:29N 46°41' W 124°50'1 2.3
2017-Aug-08 15:00N 46°42' W 124°50'1 2.3
2017-Aug-08 14:30N 46°43' W 124°51'1 2.3
2017-Aug-08 14:00N 46°44' W 124°52'1 2.3
2017-Aug-08 13:30N 46°45' W 124°53'1 2.3
2017-Aug-08 12:56N 46°46' W 124°53'1 2.4
2017-Aug-08 12:30N 46°47' W 124°54'1 2.3
2017-Aug-08 12:01N 46°48' W 124°55'1 2.3
2017-Aug-08 11:29N 46°49' W 124°55'2 3.0
2017-Aug-08 10:44N 46°51' W 124°57'0 1.4
2017-Aug-08 10:30N 46°51' W 124°58'0 0.5
2017-Aug-08 10:00N 46°50' W 124°57'1 2.3
2017-Aug-08 09:30N 46°49' W 124°57'1 2.3
2017-Aug-08 09:00N 46°48' W 124°56'1 2.3
2017-Aug-08 08:30N 46°47' W 124°55'1 2.3
2017-Aug-08 07:55N 46°46' W 124°54'1 2.3
2017-Aug-08 07:15N 46°45' W 124°53'1 2.3
2017-Aug-08 07:00N 46°44' W 124°53'1 2.3
2017-Aug-08 06:30N 46°43' W 124°52'1 2.3
2017-Aug-08 06:00N 46°42' W 124°52'1 2.2
2017-Aug-08 05:30N 46°41' W 124°51'1 2.3
2017-Aug-08 04:58N 46°40' W 124°51'2 2.3
2017-Aug-08 04:16N 46°38' W 124°51'1 2.2
2017-Aug-08 04:00N 46°38' W 124°51'1 2.2
2017-Aug-08 03:30N 46°37' W 124°50'1 2.1
2017-Aug-08 03:00N 46°36' W 124°49'2 4.0
2017-Aug-08 02:30N 46°38' W 124°47'1 1.3
2017-Aug-08 01:55N 46°38' W 124°47'1 2.3
2017-Aug-08 01:30N 46°39' W 124°48'1 2.4
2017-Aug-08 01:00N 46°40' W 124°49'1 2.5
2017-Aug-08 00:30N 46°41' W 124°49'2 2.3
2017-Aug-07 23:34N 46°43' W 124°51'0 2.6
2017-Aug-07 23:30N 46°43' W 124°51'1 2.3
2017-Aug-07 22:59N 46°45' W 124°51'1 2.4
2017-Aug-07 22:30N 46°46' W 124°52'1 2.3
2017-Aug-07 22:00N 46°47' W 124°53'1 2.4
2017-Aug-07 21:26N 46°48' W 124°54'1 2.5
2017-Aug-07 21:00N 46°49' W 124°54'1 2.0
2017-Aug-07 20:31N 46°50' W 124°55'1 1.5
2017-Aug-07 20:00N 46°50' W 124°56'0 0.6
2017-Aug-07 19:30N 46°50' W 124°56'2 2.4
2017-Aug-07 18:52N 46°49' W 124°55'1 2.3
2017-Aug-07 18:30N 46°48' W 124°54'1 2.3
2017-Aug-07 17:54N 46°47' W 124°53'1 2.3
2017-Aug-07 17:30N 46°46' W 124°53'3 2.3
2017-Aug-07 16:14N 46°43' W 124°51'1 2.3
2017-Aug-07 16:00N 46°43' W 124°51'1 2.3
2017-Aug-07 15:30N 46°42' W 124°50'1 2.2
2017-Aug-07 15:00N 46°41' W 124°49'1 2.3
2017-Aug-07 14:31N 46°40' W 124°49'1 2.3
2017-Aug-07 13:57N 46°39' W 124°48'1 2.3
2017-Aug-07 13:29N 46°38' W 124°47'2 3.0
2017-Aug-07 12:46N 46°38' W 124°44'2 7.6
2017-Aug-07 12:29N 46°36' W 124°41'2 5.2
2017-Aug-07 12:00N 46°35' W 124°38'1 1.3
2017-Aug-07 11:30N 46°35' W 124°38'1 2.2
2017-Aug-07 11:00N 46°33' W 124°38'1 2.2
2017-Aug-07 10:30N 46°32' W 124°38'1 2.0
2017-Aug-07 10:00N 46°32' W 124°39'1 2.3
2017-Aug-07 09:30N 46°31' W 124°40'1 1.7
2017-Aug-07 09:00N 46°31' W 124°41'1 2.3
2017-Aug-07 08:30N 46°32' W 124°40'1 2.5
2017-Aug-07 07:59N 46°32' W 124°39'1 2.3
2017-Aug-07 07:30N 46°33' W 124°38'1 2.4
2017-Aug-07 07:00N 46°34' W 124°36'3 5.5
2017-Aug-07 06:30N 46°32' W 124°32'4 7.5
2017-Aug-07 06:00N 46°30' W 124°29'4 7.7
2017-Aug-07 05:30N 46°27' W 124°25'4 7.7
2017-Aug-07 05:00N 46°24' W 124°21'4 7.9
2017-Aug-07 04:30N 46°21' W 124°17'4 7.4
2017-Aug-07 04:01N 46°19' W 124°13'4 8.4
2017-Aug-07 03:30N 46°16' W 124°08'4 8.8
2017-Aug-07 03:00N 46°15' W 124°02'5 9.6
2017-Aug-07 02:30N 46°12' W 123°57'3 5.2
2017-Aug-07 02:00N 46°10' W 123°55'0 0.0
2017-Aug-07 01:30N 46°10' W 123°55'0 0.0
2017-Aug-07 01:01N 46°10' W 123°55'0 0.0
2017-Aug-07 00:30N 46°10' W 123°55'0 0.0
2017-Aug-07 00:01N 46°10' W 123°55'0 0.0
2017-Aug-06 23:30N 46°10' W 123°55'0 0.0
2017-Aug-06 23:01N 46°10' W 123°55'0 0.0
2017-Aug-06 22:30N 46°10' W 123°55'0 0.0
2017-Aug-06 22:01N 46°10' W 123°55'0 0.0
2017-Aug-06 21:30N 46°10' W 123°55'0 0.0
2017-Aug-06 21:01N 46°10' W 123°55'0 0.0
2017-Aug-06 20:30N 46°10' W 123°55'0 0.0
2017-Aug-06 20:00N 46°10' W 123°55'0 0.0
2017-Aug-06 19:30N 46°10' W 123°55'0 0.0
2017-Aug-06 19:00N 46°10' W 123°55'0 0.0
2017-Aug-06 18:30N 46°10' W 123°55'0 0.0
2017-Aug-06 18:01N 46°10' W 123°55'0 0.2
2017-Aug-06 17:30N 46°10' W 123°55'0 0.2
2017-Aug-06 17:00N 46°10' W 123°55'0 0.0
2017-Aug-06 16:31N 46°10' W 123°55'0 0.0
2017-Aug-06 16:00N 46°10' W 123°55'0 0.0
2017-Aug-06 15:30N 46°10' W 123°55'0 0.0
2017-Aug-06 15:00N 46°10' W 123°55'0 0.0
2017-Aug-06 14:30N 46°10' W 123°55'0 0.0
2017-Aug-06 13:30N 46°10' W 123°55'0 0.0
2017-Aug-06 13:00N 46°10' W 123°55'0 0.0
2017-Aug-06 12:30N 46°10' W 123°55'0 0.0
2017-Aug-06 12:00N 46°10' W 123°55'0 0.0
2017-Aug-06 11:30N 46°10' W 123°55'0 0.0
2017-Aug-06 11:01N 46°10' W 123°55'0 0.0
2017-Aug-06 10:30N 46°10' W 123°55'0 0.0
2017-Aug-06 10:00N 46°10' W 123°55'0 0.0
2017-Aug-06 09:30N 46°10' W 123°55'0 0.0
2017-Aug-06 09:00N 46°10' W 123°55'0 0.0
2017-Aug-06 08:30N 46°10' W 123°55'0 0.0
2017-Aug-06 08:00N 46°10' W 123°55'0 0.0
2017-Aug-06 07:30N 46°10' W 123°55'0 0.0
2017-Aug-06 07:00N 46°10' W 123°55'0 0.0
2017-Aug-06 06:30N 46°10' W 123°55'0 0.0
2017-Aug-06 06:00N 46°10' W 123°55'0 0.0
2017-Aug-06 05:30N 46°10' W 123°55'0 0.0
2017-Aug-06 04:58N 46°10' W 123°55'0 0.0
2017-Aug-06 04:30N 46°10' W 123°55'0 0.0
2017-Aug-06 04:00N 46°10' W 123°55'0 0.0
2017-Aug-06 03:30N 46°10' W 123°55'0 0.0
2017-Aug-06 03:00N 46°10' W 123°55'0 0.0
2017-Aug-06 02:30N 46°10' W 123°55'0 0.0
2017-Aug-06 02:00N 46°10' W 123°55'0 0.0
2017-Aug-06 01:31N 46°10' W 123°55'0 0.0
2017-Aug-06 00:44N 46°10' W 123°55'0 0.0
2017-Aug-06 00:19N 46°10' W 123°55'0 0.0
2017-Aug-06 00:00N 46°10' W 123°55'0 0.0
2017-Aug-05 23:30N 46°10' W 123°55'0 0.0
2017-Aug-05 23:00N 46°10' W 123°55'0 0.0
2017-Aug-05 22:31N 46°10' W 123°55'0 0.0
2017-Aug-05 22:00N 46°10' W 123°55'0 0.0
2017-Aug-05 21:30N 46°10' W 123°55'0 0.0
2017-Aug-05 21:00N 46°10' W 123°55'0 0.0
2017-Aug-05 20:30N 46°10' W 123°55'0 0.0
2017-Aug-05 20:00N 46°10' W 123°55'0 0.0
2017-Aug-05 19:30N 46°10' W 123°55'0 0.0
2017-Aug-05 19:00N 46°10' W 123°55'0 0.0
2017-Aug-05 18:30N 46°10' W 123°55'0 0.0
2017-Aug-05 18:00N 46°10' W 123°55'0 0.0
2017-Aug-05 17:30N 46°10' W 123°55'0 0.0
2017-Aug-05 17:00N 46°10' W 123°55'0 0.0
2017-Aug-05 16:30N 46°10' W 123°55'0 0.0
2017-Aug-05 16:00N 46°10' W 123°55'0 0.0
2017-Aug-05 15:28N 46°10' W 123°55'0 0.0
2017-Aug-05 14:16N 46°10' W 123°55'0 0.0
2017-Aug-05 14:00N 46°10' W 123°55'0 0.0
2017-Aug-05 13:31N 46°10' W 123°55'0 0.0
2017-Aug-05 13:01N 46°10' W 123°55'0 0.0
2017-Aug-05 12:30N 46°10' W 123°55'0 0.0
2017-Aug-05 12:00N 46°10' W 123°55'0 0.0
2017-Aug-05 11:31N 46°10' W 123°55'0 0.0
2017-Aug-05 11:00N 46°10' W 123°55'0 0.0
2017-Aug-05 10:30N 46°10' W 123°55'0 0.0
2017-Aug-05 10:00N 46°10' W 123°55'0 0.0
2017-Aug-05 09:30N 46°10' W 123°55'0 0.0
2017-Aug-05 09:00N 46°10' W 123°55'0 0.0
2017-Aug-05 08:31N 46°10' W 123°55'0 0.0
2017-Aug-05 08:00N 46°10' W 123°55'0 0.0
2017-Aug-05 07:30N 46°10' W 123°55'0 0.0
2017-Aug-05 07:00N 46°10' W 123°55'0 0.0
2017-Aug-05 06:30N 46°10' W 123°55'0 0.0
2017-Aug-05 06:00N 46°10' W 123°55'0 0.0
2017-Aug-05 05:30N 46°10' W 123°55'0 0.0
2017-Aug-05 05:00N 46°10' W 123°55'0 0.0
2017-Aug-05 04:30N 46°10' W 123°55'0 0.0
2017-Aug-05 04:00N 46°10' W 123°55'0 0.0
2017-Aug-05 03:31N 46°10' W 123°55'0 0.0
2017-Aug-05 03:01N 46°10' W 123°55'0 0.0
2017-Aug-05 02:30N 46°10' W 123°55'0 0.0
2017-Aug-05 02:00N 46°10' W 123°55'0 0.0
2017-Aug-05 01:30N 46°10' W 123°55'0 0.0
2017-Aug-05 01:00N 46°10' W 123°55'0 0.0
2017-Aug-05 00:30N 46°10' W 123°55'0 0.0
2017-Aug-05 00:00N 46°10' W 123°55'0 0.0
2017-Aug-04 23:30N 46°10' W 123°55'0 0.0
2017-Aug-04 23:00N 46°10' W 123°55'0 0.0
2017-Aug-04 22:30N 46°10' W 123°55'0 0.0
2017-Aug-04 22:00N 46°10' W 123°55'0 0.0
2017-Aug-04 21:30N 46°10' W 123°55'0 0.0
2017-Aug-04 21:00N 46°10' W 123°55'0 0.0
2017-Aug-04 20:31N 46°10' W 123°55'0 0.0
2017-Aug-04 20:00N 46°10' W 123°55'0 0.0
2017-Aug-04 19:30N 46°10' W 123°55'0 0.0
2017-Aug-04 19:01N 46°10' W 123°55'0 0.0
2017-Aug-04 18:30N 46°10' W 123°55'0 0.0
2017-Aug-04 18:00N 46°10' W 123°55'0 0.0
2017-Aug-04 17:30N 46°10' W 123°55'0 0.0
2017-Aug-04 17:00N 46°10' W 123°55'0 0.0
2017-Aug-04 16:30N 46°10' W 123°55'0 0.0
2017-Aug-04 16:00N 46°10' W 123°55'0 0.0
2017-Aug-04 15:30N 46°10' W 123°55'0 0.0
2017-Aug-04 15:00N 46°10' W 123°55'0 0.0
2017-Aug-04 14:00N 46°10' W 123°55'0 0.0
2017-Aug-04 13:30N 46°10' W 123°55'0 0.0
2017-Aug-04 13:00N 46°10' W 123°55'0 0.0
2017-Aug-04 12:30N 46°10' W 123°55'0 0.0
2017-Aug-04 12:00N 46°10' W 123°55'0 0.0
2017-Aug-04 11:30N 46°10' W 123°55'0 0.0
2017-Aug-04 11:00N 46°10' W 123°55'0 0.0
2017-Aug-04 10:30N 46°10' W 123°55'0 0.0
2017-Aug-04 10:00N 46°10' W 123°55'0 0.0
2017-Aug-04 09:30N 46°10' W 123°55'0 0.0
2017-Aug-04 09:01N 46°10' W 123°55'0 0.0
2017-Aug-04 08:30N 46°10' W 123°55'0 0.0
2017-Aug-04 08:00N 46°10' W 123°55'0 0.0
2017-Aug-04 07:31N 46°10' W 123°55'0 0.0
2017-Aug-04 07:00N 46°10' W 123°55'0 0.0
2017-Aug-04 06:31N 46°10' W 123°55'0 0.0
2017-Aug-04 06:01N 46°10' W 123°55'0 0.0
2017-Aug-04 05:30N 46°10' W 123°55'0 0.0
2017-Aug-04 05:00N 46°10' W 123°55'0 0.0
2017-Aug-04 04:30N 46°10' W 123°55'0 0.0
2017-Aug-04 04:00N 46°10' W 123°55'0 0.0
2017-Aug-04 03:31N 46°10' W 123°55'0 0.0
2017-Aug-04 03:00N 46°10' W 123°55'0 0.0
2017-Aug-04 02:30N 46°10' W 123°55'0 0.0
2017-Aug-04 02:00N 46°10' W 123°55'0 0.0
2017-Aug-04 01:30N 46°10' W 123°55'0 0.0
2017-Aug-04 01:00N 46°10' W 123°55'0 0.0
2017-Aug-04 00:31N 46°10' W 123°55'0 0.0
2017-Aug-04 00:00N 46°10' W 123°55'0 0.0
2017-Aug-03 23:31N 46°10' W 123°55'0 0.0
2017-Aug-03 23:00N 46°10' W 123°55'0 0.0
2017-Aug-03 22:31N 46°10' W 123°55'0 0.0
2017-Aug-03 22:01N 46°10' W 123°55'0 0.0
2017-Aug-03 21:31N 46°10' W 123°55'0 0.0
2017-Aug-03 21:00N 46°10' W 123°55'0 0.0
2017-Aug-03 20:30N 46°10' W 123°55'0 0.0
2017-Aug-03 20:00N 46°10' W 123°55'0 0.0
2017-Aug-03 19:30N 46°10' W 123°55'0 0.0
2017-Aug-03 19:00N 46°10' W 123°55'0 0.0
2017-Aug-03 18:31N 46°10' W 123°55'0 0.2
2017-Aug-03 18:00N 46°10' W 123°55'0 0.0
2017-Aug-03 17:31N 46°10' W 123°55'0 0.0
2017-Aug-03 17:00N 46°10' W 123°55'0 0.0
2017-Aug-03 16:30N 46°10' W 123°55'0 0.0
2017-Aug-03 16:01N 46°10' W 123°55'0 0.0
2017-Aug-03 15:30N 46°10' W 123°55'0 0.0
2017-Aug-03 15:00N 46°10' W 123°55'0 0.0
2017-Aug-03 14:00N 46°10' W 123°55'0 0.0
2017-Aug-03 13:30N 46°10' W 123°55'0 0.0
2017-Aug-03 13:00N 46°10' W 123°55'0 0.2
2017-Aug-03 12:30N 46°10' W 123°55'0 0.0
2017-Aug-03 12:00N 46°10' W 123°55'0 0.0
2017-Aug-03 11:30N 46°10' W 123°55'0 0.0
2017-Aug-03 11:00N 46°10' W 123°55'0 0.0
2017-Aug-03 10:30N 46°10' W 123°55'0 0.0
2017-Aug-03 10:00N 46°10' W 123°55'0 0.0
2017-Aug-03 09:30N 46°10' W 123°55'0 0.0
2017-Aug-03 09:00N 46°10' W 123°55'0 0.0
2017-Aug-03 08:31N 46°10' W 123°55'0 0.0
2017-Aug-03 08:01N 46°10' W 123°55'0 0.0
2017-Aug-03 07:31N 46°10' W 123°55'0 0.0
2017-Aug-03 07:00N 46°10' W 123°55'0 0.0
2017-Aug-03 06:31N 46°10' W 123°55'0 0.0
2017-Aug-03 06:00N 46°10' W 123°55'0 0.0
2017-Aug-03 05:30N 46°10' W 123°55'0 0.0
2017-Aug-03 05:00N 46°10' W 123°55'0 0.0
2017-Aug-03 04:30N 46°10' W 123°55'0 0.0
2017-Aug-03 04:00N 46°10' W 123°55'0 0.0
2017-Aug-03 03:30N 46°10' W 123°55'0 0.0
2017-Aug-03 03:01N 46°10' W 123°55'0 0.0
2017-Aug-03 02:30N 46°10' W 123°55'0 0.0
2017-Aug-03 02:01N 46°10' W 123°55'0 0.0
2017-Aug-03 01:31N 46°10' W 123°55'0 0.0
2017-Aug-03 01:00N 46°10' W 123°55'0 0.0
2017-Aug-03 00:30N 46°10' W 123°55'0 0.0
2017-Aug-03 00:00N 46°10' W 123°55'0 0.0
2017-Aug-02 23:31N 46°10' W 123°55'0 0.0
2017-Aug-02 23:00N 46°10' W 123°55'0 0.0
2017-Aug-02 22:30N 46°10' W 123°55'0 0.0
2017-Aug-02 22:00N 46°10' W 123°55'0 0.0
2017-Aug-02 21:30N 46°10' W 123°55'0 0.0
2017-Aug-02 21:00N 46°10' W 123°55'  
Track history (hours):
 
Tides and Currents Weather Stations Pressure Air Temp Water Temp Dewpoint Dewpoint Depression Visibility Wind Speed Wind Dir Waves Ship Positions

Iron Lady

Owner: IRON LADY INC, SOUTH BEND, WA. More information available from US FCC via Universal Licensing System and Coast Guard Vessel Documentation Center.

Last reported at 2017-Aug-12 20:45 UTC. Time now 2017-Dec-15 10:18 UTC.
Position N 46°42' W 123°56'.
Warning: this ship's position is months out of date.

Type: Fishing. MMSI: 367037240.

Date/timePositionNaut miles runAvg speedWind from/ knotsBaromVisibWave heightAir tempDewpointWater temp
2017-Aug-12 20:45N 46°42' W 123°56'310.4
2017-Aug-12 20:28N 46°42' W 124°00'510.8
2017-Aug-12 20:00N 46°44' W 124°07'3 6.9
2017-Aug-12 19:30N 46°41' W 124°09'5 9.6
2017-Aug-12 19:01N 46°36' W 124°08'1112.2
2017-Aug-12 18:06N 46°25' W 124°08'0 0.7
2017-Aug-12 17:48N 46°25' W 124°08'3 9.3
2017-Aug-12 17:30N 46°22' W 124°07'5 9.1
2017-Aug-12 17:00N 46°18' W 124°07'4 7.5
2017-Aug-12 16:30N 46°15' W 124°03'713.0
2017-Aug-12 16:00N 46°12' W 123°55'2 3.2
2017-Aug-12 15:30N 46°10' W 123°55'0 0.0
2017-Aug-12 15:00N 46°10' W 123°55'0 0.0
2017-Aug-12 14:30N 46°10' W 123°55'0 0.0
2017-Aug-12 14:01N 46°10' W 123°55'0 0.0
2017-Aug-12 13:30N 46°10' W 123°55'0 0.0
2017-Aug-12 13:00N 46°10' W 123°55'0 0.0
2017-Aug-12 12:30N 46°10' W 123°55'0 0.0
2017-Aug-12 12:00N 46°10' W 123°55'0 0.0
2017-Aug-12 11:30N 46°10' W 123°55'0 0.0
2017-Aug-12 11:00N 46°10' W 123°55'0 0.0
2017-Aug-12 10:31N 46°10' W 123°55'0 0.0
2017-Aug-12 10:00N 46°10' W 123°55'0 0.0
2017-Aug-12 09:30N 46°10' W 123°55'0 0.0
2017-Aug-12 09:01N 46°10' W 123°55'0 0.0
2017-Aug-12 08:30N 46°10' W 123°55'0 0.0
2017-Aug-12 08:00N 46°10' W 123°55'0 0.0
2017-Aug-12 07:30N 46°10' W 123°55'0 0.0
2017-Aug-12 07:00N 46°10' W 123°55'0 0.0
2017-Aug-12 06:30N 46°10' W 123°55'0 0.0
2017-Aug-12 06:00N 46°10' W 123°55'0 0.0
2017-Aug-12 05:31N 46°10' W 123°55'0 0.0
2017-Aug-12 05:00N 46°10' W 123°55'0 0.0
2017-Aug-12 04:30N 46°10' W 123°55'0 0.0
2017-Aug-12 04:00N 46°10' W 123°55'0 0.0
2017-Aug-12 03:30N 46°10' W 123°55'0 0.0
2017-Aug-12 03:00N 46°10' W 123°55'0 0.0
2017-Aug-12 02:30N 46°10' W 123°55'0 0.0
2017-Aug-12 02:00N 46°10' W 123°55'0 0.0
2017-Aug-12 01:31N 46°10' W 123°55'0 0.0
2017-Aug-12 01:00N 46°10' W 123°55'0 0.0
2017-Aug-12 00:30N 46°10' W 123°55'0 0.0
2017-Aug-12 00:00N 46°10' W 123°55'0 0.0
2017-Aug-11 23:31N 46°10' W 123°55'0 0.0
2017-Aug-11 23:00N 46°10' W 123°55'0 0.0
2017-Aug-11 22:31N 46°10' W 123°55'0 0.0
2017-Aug-11 22:00N 46°10' W 123°55'0 0.0
2017-Aug-11 21:30N 46°10' W 123°55'0 0.0
2017-Aug-11 21:00N 46°10' W 123°55'0 0.0
2017-Aug-11 20:30N 46°10' W 123°55'0 0.0
2017-Aug-11 20:01N 46°10' W 123°55'0 0.0
2017-Aug-11 19:30N 46°10' W 123°55'0 0.0
2017-Aug-11 19:00N 46°10' W 123°55'0 0.0
2017-Aug-11 18:30N 46°10' W 123°55'0 0.0
2017-Aug-11 18:00N 46°10' W 123°55'0 0.0
2017-Aug-11 17:30N 46°10' W 123°55'0 0.0
2017-Aug-11 17:00N 46°10' W 123°55'0 0.0
2017-Aug-11 16:30N 46°10' W 123°55'0 0.0
2017-Aug-11 16:00N 46°10' W 123°55'0 0.0
2017-Aug-11 15:30N 46°10' W 123°55'0 0.0
2017-Aug-11 15:00N 46°10' W 123°55'0 0.0
2017-Aug-11 14:30N 46°10' W 123°55'0 0.0
2017-Aug-11 13:31N 46°10' W 123°55'0 0.0
2017-Aug-11 13:00N 46°10' W 123°55'0 0.0
2017-Aug-11 12:30N 46°10' W 123°55'0 0.0
2017-Aug-11 12:01N 46°10' W 123°55'0 0.0
2017-Aug-11 11:30N 46°10' W 123°55'0 0.0
2017-Aug-11 11:00N 46°10' W 123°55'0 0.0
2017-Aug-11 10:30N 46°10' W 123°55'0 0.0
2017-Aug-11 10:00N 46°10' W 123°55'0 0.0
2017-Aug-11 09:30N 46°10' W 123°55'0 0.0
2017-Aug-11 09:00N 46°10' W 123°55'0 0.0
2017-Aug-11 08:31N 46°10' W 123°55'0 0.0
2017-Aug-11 08:00N 46°10' W 123°55'0 0.0
2017-Aug-11 07:31N 46°10' W 123°55'0 0.0
2017-Aug-11 07:00N 46°10' W 123°55'0 0.0
2017-Aug-11 06:30N 46°10' W 123°55'0 0.0
2017-Aug-11 06:00N 46°10' W 123°55'0 0.0
2017-Aug-11 05:30N 46°10' W 123°55'0 0.0
2017-Aug-11 05:00N 46°10' W 123°55'0 0.0
2017-Aug-11 04:30N 46°10' W 123°55'0 0.0
2017-Aug-11 04:00N 46°10' W 123°55'0 0.0
2017-Aug-11 03:30N 46°10' W 123°55'0 0.0
2017-Aug-11 03:00N 46°10' W 123°55'0 0.0
2017-Aug-11 02:31N 46°10' W 123°55'0 0.0
2017-Aug-11 02:01N 46°10' W 123°55'0 0.0
2017-Aug-11 01:30N 46°10' W 123°55'0 0.0
2017-Aug-11 01:00N 46°10' W 123°55'0 0.0
2017-Aug-11 00:30N 46°10' W 123°55'0 0.0
2017-Aug-11 00:00N 46°10' W 123°55'0 0.0
2017-Aug-10 23:30N 46°10' W 123°55'0 0.0
2017-Aug-10 23:01N 46°10' W 123°55'0 0.0
2017-Aug-10 22:31N 46°10' W 123°55'0 0.2
2017-Aug-10 22:00N 46°10' W 123°55'0 0.0
2017-Aug-10 21:30N 46°10' W 123°55'0 0.0
2017-Aug-10 21:00N 46°10' W 123°55'2 3.4
2017-Aug-10 20:30N 46°11' W 123°53'1 2.2
2017-Aug-10 20:00N 46°11' W 123°52'0 0.0
2017-Aug-10 19:30N 46°11' W 123°52'1 2.5
2017-Aug-10 19:00N 46°11' W 123°54'1 2.7
2017-Aug-10 18:30N 46°10' W 123°55'0 0.0
2017-Aug-10 18:01N 46°10' W 123°55'0 0.0
2017-Aug-10 17:30N 46°10' W 123°55'0 0.0
2017-Aug-10 17:00N 46°10' W 123°55'0 0.0
2017-Aug-10 16:30N 46°10' W 123°55'0 0.0
2017-Aug-10 16:00N 46°10' W 123°55'0 0.0
2017-Aug-10 15:30N 46°10' W 123°55'0 0.0
2017-Aug-10 15:00N 46°10' W 123°55'0 0.0
2017-Aug-10 14:31N 46°10' W 123°55'0 0.0
2017-Aug-10 14:00N 46°10' W 123°55'0 0.0
2017-Aug-10 13:31N 46°10' W 123°55'0 0.0
2017-Aug-10 13:00N 46°10' W 123°55'0 0.2
2017-Aug-10 12:30N 46°10' W 123°55'0 0.0
2017-Aug-10 12:00N 46°10' W 123°55'0 0.0
2017-Aug-10 11:30N 46°10' W 123°55'0 0.0
2017-Aug-10 11:00N 46°10' W 123°55'0 0.0
2017-Aug-10 10:30N 46°10' W 123°55'0 0.0
2017-Aug-10 10:00N 46°10' W 123°55'0 0.0
2017-Aug-10 09:30N 46°10' W 123°55'0 0.0
2017-Aug-10 09:00N 46°10' W 123°55'0 0.0
2017-Aug-10 08:31N 46°10' W 123°55'0 0.0
2017-Aug-10 08:00N 46°10' W 123°55'0 0.0
2017-Aug-10 07:31N 46°10' W 123°55'0 0.0
2017-Aug-10 07:00N 46°10' W 123°55'0 0.0
2017-Aug-10 06:30N 46°10' W 123°55'0 0.0
2017-Aug-10 06:00N 46°10' W 123°55'0 0.0
2017-Aug-10 05:30N 46°10' W 123°55'0 0.0
2017-Aug-10 05:00N 46°10' W 123°55'0 0.0
2017-Aug-10 04:30N 46°10' W 123°55'0 0.0
2017-Aug-10 04:00N 46°10' W 123°55'0 0.0
2017-Aug-10 03:30N 46°10' W 123°55'1 1.9
2017-Aug-10 03:00N 46°11' W 123°54'3 5.6
2017-Aug-10 02:30N 46°13' W 123°58'2 4.6
2017-Aug-10 02:00N 46°14' W 123°60'2 4.0
2017-Aug-10 01:30N 46°15' W 124°03'3 5.2
2017-Aug-10 01:01N 46°16' W 124°06'5 8.9
2017-Aug-10 00:30N 46°20' W 124°09'5 8.9
2017-Aug-09 23:59N 46°25' W 124°11'5 8.3
2017-Aug-09 23:24N 46°29' W 124°13'3 8.7
2017-Aug-09 23:01N 46°32' W 124°15'811.8
2017-Aug-09 22:18N 46°40' W 124°20'311.2
2017-Aug-09 21:59N 46°43' W 124°21'1 1.5
2017-Aug-09 21:30N 46°44' W 124°22'5 8.2
2017-Aug-09 20:54N 46°49' W 124°25'3 8.1
2017-Aug-09 20:29N 46°52' W 124°26'4 8.1
2017-Aug-09 20:00N 46°56' W 124°28'4 7.9
2017-Aug-09 19:30N 46°59' W 124°29'4 7.8
2017-Aug-09 18:59N 47°03' W 124°31'4 7.6
2017-Aug-09 18:30N 47°07' W 124°33'4 7.8
2017-Aug-09 17:57N 47°11' W 124°36'9 0.7
2017-Aug-09 05:21N 47°18' W 124°43'2 4.8
2017-Aug-09 04:56N 47°16' W 124°45'1 1.8
2017-Aug-09 04:30N 47°16' W 124°45'5 2.7
2017-Aug-09 02:34N 47°11' W 124°47'0 2.8
2017-Aug-09 02:23N 47°10' W 124°47'7 4.7
2017-Aug-09 00:50N 47°03' W 124°44'3 7.4
2017-Aug-09 00:30N 47°01' W 124°42'6 7.5
2017-Aug-08 23:44N 46°55' W 124°39'2 7.7
2017-Aug-08 23:30N 46°54' W 124°39'3 4.7
2017-Aug-08 22:53N 46°51' W 124°37'1 2.7
2017-Aug-08 22:31N 46°50' W 124°36'2 2.8
2017-Aug-08 21:41N 46°48' W 124°35'1 2.7
2017-Aug-08 21:30N 46°48' W 124°34'1 2.7
2017-Aug-08 21:00N 46°47' W 124°33'1 2.7
2017-Aug-08 20:29N 46°45' W 124°32'1 2.8
2017-Aug-08 20:00N 46°44' W 124°31'2 4.8
2017-Aug-08 19:30N 46°42' W 124°33'4 8.0
2017-Aug-08 19:00N 46°40' W 124°38'4 8.2
2017-Aug-08 18:30N 46°38' W 124°43'1 2.0
2017-Aug-08 18:01N 46°38' W 124°45'1 1.3
2017-Aug-08 17:30N 46°38' W 124°45'1 2.2
2017-Aug-08 17:00N 46°38' W 124°47'1 2.1
2017-Aug-08 16:30N 46°39' W 124°48'1 2.1
2017-Aug-08 16:00N 46°40' W 124°49'1 2.3
2017-Aug-08 15:29N 46°41' W 124°50'1 2.3
2017-Aug-08 15:00N 46°42' W 124°50'1 2.3
2017-Aug-08 14:30N 46°43' W 124°51'1 2.3
2017-Aug-08 14:00N 46°44' W 124°52'1 2.3
2017-Aug-08 13:30N 46°45' W 124°53'1 2.3
2017-Aug-08 12:56N 46°46' W 124°53'1 2.4
2017-Aug-08 12:30N 46°47' W 124°54'1 2.3
2017-Aug-08 12:01N 46°48' W 124°55'1 2.3
2017-Aug-08 11:29N 46°49' W 124°55'2 3.0
2017-Aug-08 10:44N 46°51' W 124°57'0 1.4
2017-Aug-08 10:30N 46°51' W 124°58'0 0.5
2017-Aug-08 10:00N 46°50' W 124°57'1 2.3
2017-Aug-08 09:30N 46°49' W 124°57'1 2.3
2017-Aug-08 09:00N 46°48' W 124°56'1 2.3
2017-Aug-08 08:30N 46°47' W 124°55'1 2.3
2017-Aug-08 07:55N 46°46' W 124°54'1 2.3
2017-Aug-08 07:15N 46°45' W 124°53'1 2.3
2017-Aug-08 07:00N 46°44' W 124°53'1 2.3
2017-Aug-08 06:30N 46°43' W 124°52'1 2.3
2017-Aug-08 06:00N 46°42' W 124°52'1 2.2
2017-Aug-08 05:30N 46°41' W 124°51'1 2.3
2017-Aug-08 04:58N 46°40' W 124°51'2 2.3
2017-Aug-08 04:16N 46°38' W 124°51'1 2.2
2017-Aug-08 04:00N 46°38' W 124°51'1 2.2
2017-Aug-08 03:30N 46°37' W 124°50'1 2.1
2017-Aug-08 03:00N 46°36' W 124°49'2 4.0
2017-Aug-08 02:30N 46°38' W 124°47'1 1.3
2017-Aug-08 01:55N 46°38' W 124°47'1 2.3
2017-Aug-08 01:30N 46°39' W 124°48'1 2.4
2017-Aug-08 01:00N 46°40' W 124°49'1 2.5
2017-Aug-08 00:30N 46°41' W 124°49'2 2.3
2017-Aug-07 23:34N 46°43' W 124°51'0 2.6
2017-Aug-07 23:30N 46°43' W 124°51'1 2.3
2017-Aug-07 22:59N 46°45' W 124°51'1 2.4
2017-Aug-07 22:30N 46°46' W 124°52'1 2.3
2017-Aug-07 22:00N 46°47' W 124°53'1 2.4
2017-Aug-07 21:26N 46°48' W 124°54'1 2.5
2017-Aug-07 21:00N 46°49' W 124°54'1 2.0
2017-Aug-07 20:31N 46°50' W 124°55'1 1.5
2017-Aug-07 20:00N 46°50' W 124°56'0 0.6
2017-Aug-07 19:30N 46°50' W 124°56'2 2.4
2017-Aug-07 18:52N 46°49' W 124°55'1 2.3
2017-Aug-07 18:30N 46°48' W 124°54'1 2.3
2017-Aug-07 17:54N 46°47' W 124°53'1 2.3
2017-Aug-07 17:30N 46°46' W 124°53'3 2.3
2017-Aug-07 16:14N 46°43' W 124°51'1 2.3
2017-Aug-07 16:00N 46°43' W 124°51'1 2.3
2017-Aug-07 15:30N 46°42' W 124°50'1 2.2
2017-Aug-07 15:00N 46°41' W 124°49'1 2.3
2017-Aug-07 14:31N 46°40' W 124°49'1 2.3
2017-Aug-07 13:57N 46°39' W 124°48'1 2.3
2017-Aug-07 13:29N 46°38' W 124°47'2 3.0
2017-Aug-07 12:46N 46°38' W 124°44'2 7.6
2017-Aug-07 12:29N 46°36' W 124°41'2 5.2
2017-Aug-07 12:00N 46°35' W 124°38'1 1.3
2017-Aug-07 11:30N 46°35' W 124°38'1 2.2
2017-Aug-07 11:00N 46°33' W 124°38'1 2.2
2017-Aug-07 10:30N 46°32' W 124°38'1 2.0
2017-Aug-07 10:00N 46°32' W 124°39'1 2.3
2017-Aug-07 09:30N 46°31' W 124°40'1 1.7
2017-Aug-07 09:00N 46°31' W 124°41'1 2.3
2017-Aug-07 08:30N 46°32' W 124°40'1 2.5
2017-Aug-07 07:59N 46°32' W 124°39'1 2.3
2017-Aug-07 07:30N 46°33' W 124°38'1 2.4
2017-Aug-07 07:00N 46°34' W 124°36'3 5.5
2017-Aug-07 06:30N 46°32' W 124°32'4 7.5
2017-Aug-07 06:00N 46°30' W 124°29'4 7.7
2017-Aug-07 05:30N 46°27' W 124°25'4 7.7
2017-Aug-07 05:00N 46°24' W 124°21'4 7.9
2017-Aug-07 04:30N 46°21' W 124°17'4 7.4
2017-Aug-07 04:01N 46°19' W 124°13'4 8.4
2017-Aug-07 03:30N 46°16' W 124°08'4 8.8
2017-Aug-07 03:00N 46°15' W 124°02'5 9.6
2017-Aug-07 02:30N 46°12' W 123°57'3 5.2
2017-Aug-07 02:00N 46°10' W 123°55'0 0.0
2017-Aug-07 01:30N 46°10' W 123°55'0 0.0
2017-Aug-07 01:01N 46°10' W 123°55'0 0.0
2017-Aug-07 00:30N 46°10' W 123°55'0 0.0
2017-Aug-07 00:01N 46°10' W 123°55'0 0.0
2017-Aug-06 23:30N 46°10' W 123°55'0 0.0
2017-Aug-06 23:01N 46°10' W 123°55'0 0.0
2017-Aug-06 22:30N 46°10' W 123°55'0 0.0
2017-Aug-06 22:01N 46°10' W 123°55'0 0.0
2017-Aug-06 21:30N 46°10' W 123°55'0 0.0
2017-Aug-06 21:01N 46°10' W 123°55'0 0.0
2017-Aug-06 20:30N 46°10' W 123°55'0 0.0
2017-Aug-06 20:00N 46°10' W 123°55'0 0.0
2017-Aug-06 19:30N 46°10' W 123°55'0 0.0
2017-Aug-06 19:00N 46°10' W 123°55'0 0.0
2017-Aug-06 18:30N 46°10' W 123°55'0 0.0
2017-Aug-06 18:01N 46°10' W 123°55'0 0.2
2017-Aug-06 17:30N 46°10' W 123°55'0 0.2
2017-Aug-06 17:00N 46°10' W 123°55'0 0.0
2017-Aug-06 16:31N 46°10' W 123°55'0 0.0
2017-Aug-06 16:00N 46°10' W 123°55'0 0.0
2017-Aug-06 15:30N 46°10' W 123°55'0 0.0
2017-Aug-06 15:00N 46°10' W 123°55'0 0.0
2017-Aug-06 14:30N 46°10' W 123°55'0 0.0
2017-Aug-06 13:30N 46°10' W 123°55'0 0.0
2017-Aug-06 13:00N 46°10' W 123°55'0 0.0
2017-Aug-06 12:30N 46°10' W 123°55'0 0.0
2017-Aug-06 12:00N 46°10' W 123°55'0 0.0
2017-Aug-06 11:30N 46°10' W 123°55'0 0.0
2017-Aug-06 11:01N 46°10' W 123°55'0 0.0
2017-Aug-06 10:30N 46°10' W 123°55'0 0.0
2017-Aug-06 10:00N 46°10' W 123°55'0 0.0
2017-Aug-06 09:30N 46°10' W 123°55'0 0.0
2017-Aug-06 09:00N 46°10' W 123°55'0 0.0
2017-Aug-06 08:30N 46°10' W 123°55'0 0.0
2017-Aug-06 08:00N 46°10' W 123°55'0 0.0
2017-Aug-06 07:30N 46°10' W 123°55'0 0.0
2017-Aug-06 07:00N 46°10' W 123°55'0 0.0
2017-Aug-06 06:30N 46°10' W 123°55'0 0.0
2017-Aug-06 06:00N 46°10' W 123°55'0 0.0
2017-Aug-06 05:30N 46°10' W 123°55'0 0.0
2017-Aug-06 04:58N 46°10' W 123°55'0 0.0
2017-Aug-06 04:30N 46°10' W 123°55'0 0.0
2017-Aug-06 04:00N 46°10' W 123°55'0 0.0
2017-Aug-06 03:30N 46°10' W 123°55'0 0.0
2017-Aug-06 03:00N 46°10' W 123°55'0 0.0
2017-Aug-06 02:30N 46°10' W 123°55'0 0.0
2017-Aug-06 02:00N 46°10' W 123°55'0 0.0
2017-Aug-06 01:31N 46°10' W 123°55'0 0.0
2017-Aug-06 00:44N 46°10' W 123°55'0 0.0
2017-Aug-06 00:19N 46°10' W 123°55'0 0.0
2017-Aug-06 00:00N 46°10' W 123°55'0 0.0
2017-Aug-05 23:30N 46°10' W 123°55'0 0.0
2017-Aug-05 23:00N 46°10' W 123°55'0 0.0
2017-Aug-05 22:31N 46°10' W 123°55'0 0.0
2017-Aug-05 22:00N 46°10' W 123°55'0 0.0
2017-Aug-05 21:30N 46°10' W 123°55'0 0.0
2017-Aug-05 21:00N 46°10' W 123°55'0 0.0
2017-Aug-05 20:30N 46°10' W 123°55'0 0.0
2017-Aug-05 20:00N 46°10' W 123°55'0 0.0
2017-Aug-05 19:30N 46°10' W 123°55'0 0.0
2017-Aug-05 19:00N 46°10' W 123°55'0 0.0
2017-Aug-05 18:30N 46°10' W 123°55'0 0.0
2017-Aug-05 18:00N 46°10' W 123°55'0 0.0
2017-Aug-05 17:30N 46°10' W 123°55'0 0.0
2017-Aug-05 17:00N 46°10' W 123°55'0 0.0
2017-Aug-05 16:30N 46°10' W 123°55'0 0.0
2017-Aug-05 16:00N 46°10' W 123°55'0 0.0
2017-Aug-05 15:28N 46°10' W 123°55'0 0.0
2017-Aug-05 14:16N 46°10' W 123°55'0 0.0
2017-Aug-05 14:00N 46°10' W 123°55'0 0.0
2017-Aug-05 13:31N 46°10' W 123°55'0 0.0
2017-Aug-05 13:01N 46°10' W 123°55'0 0.0
2017-Aug-05 12:30N 46°10' W 123°55'0 0.0
2017-Aug-05 12:00N 46°10' W 123°55'0 0.0
2017-Aug-05 11:31N 46°10' W 123°55'0 0.0
2017-Aug-05 11:00N 46°10' W 123°55'0 0.0
2017-Aug-05 10:30N 46°10' W 123°55'0 0.0
2017-Aug-05 10:00N 46°10' W 123°55'0 0.0
2017-Aug-05 09:30N 46°10' W 123°55'0 0.0
2017-Aug-05 09:00N 46°10' W 123°55'0 0.0
2017-Aug-05 08:31N 46°10' W 123°55'0 0.0
2017-Aug-05 08:00N 46°10' W 123°55'0 0.0
2017-Aug-05 07:30N 46°10' W 123°55'0 0.0
2017-Aug-05 07:00N 46°10' W 123°55'0 0.0
2017-Aug-05 06:30N 46°10' W 123°55'0 0.0
2017-Aug-05 06:00N 46°10' W 123°55'0 0.0
2017-Aug-05 05:30N 46°10' W 123°55'0 0.0
2017-Aug-05 05:00N 46°10' W 123°55'0 0.0
2017-Aug-05 04:30N 46°10' W 123°55'0 0.0
2017-Aug-05 04:00N 46°10' W 123°55'0 0.0
2017-Aug-05 03:31N 46°10' W 123°55'0 0.0
2017-Aug-05 03:01N 46°10' W 123°55'0 0.0
2017-Aug-05 02:30N 46°10' W 123°55'0 0.0
2017-Aug-05 02:00N 46°10' W 123°55'0 0.0
2017-Aug-05 01:30N 46°10' W 123°55'0 0.0
2017-Aug-05 01:00N 46°10' W 123°55'0 0.0
2017-Aug-05 00:30N 46°10' W 123°55'0 0.0
2017-Aug-05 00:00N 46°10' W 123°55'0 0.0
2017-Aug-04 23:30N 46°10' W 123°55'0 0.0
2017-Aug-04 23:00N 46°10' W 123°55'0 0.0
2017-Aug-04 22:30N 46°10' W 123°55'0 0.0
2017-Aug-04 22:00N 46°10' W 123°55'0 0.0
2017-Aug-04 21:30N 46°10' W 123°55'0 0.0
2017-Aug-04 21:00N 46°10' W 123°55'0 0.0
2017-Aug-04 20:31N 46°10' W 123°55'0 0.0
2017-Aug-04 20:00N 46°10' W 123°55'0 0.0
2017-Aug-04 19:30N 46°10' W 123°55'0 0.0
2017-Aug-04 19:01N 46°10' W 123°55'0 0.0
2017-Aug-04 18:30N 46°10' W 123°55'0 0.0
2017-Aug-04 18:00N 46°10' W 123°55'0 0.0
2017-Aug-04 17:30N 46°10' W 123°55'0 0.0
2017-Aug-04 17:00N 46°10' W 123°55'0 0.0
2017-Aug-04 16:30N 46°10' W 123°55'0 0.0
2017-Aug-04 16:00N 46°10' W 123°55'0 0.0
2017-Aug-04 15:30N 46°10' W 123°55'0 0.0
2017-Aug-04 15:00N 46°10' W 123°55'0 0.0
2017-Aug-04 14:00N 46°10' W 123°55'0 0.0
2017-Aug-04 13:30N 46°10' W 123°55'0 0.0
2017-Aug-04 13:00N 46°10' W 123°55'0 0.0
2017-Aug-04 12:30N 46°10' W 123°55'0 0.0
2017-Aug-04 12:00N 46°10' W 123°55'0 0.0
2017-Aug-04 11:30N 46°10' W 123°55'0 0.0
2017-Aug-04 11:00N 46°10' W 123°55'0 0.0
2017-Aug-04 10:30N 46°10' W 123°55'0 0.0
2017-Aug-04 10:00N 46°10' W 123°55'0 0.0
2017-Aug-04 09:30N 46°10' W 123°55'0 0.0
2017-Aug-04 09:01N 46°10' W 123°55'0 0.0
2017-Aug-04 08:30N 46°10' W 123°55'0 0.0
2017-Aug-04 08:00N 46°10' W 123°55'0 0.0
2017-Aug-04 07:31N 46°10' W 123°55'0 0.0
2017-Aug-04 07:00N 46°10' W 123°55'0 0.0
2017-Aug-04 06:31N 46°10' W 123°55'0 0.0
2017-Aug-04 06:01N 46°10' W 123°55'0 0.0
2017-Aug-04 05:30N 46°10' W 123°55'0 0.0
2017-Aug-04 05:00N 46°10' W 123°55'0 0.0
2017-Aug-04 04:30N 46°10' W 123°55'0 0.0
2017-Aug-04 04:00N 46°10' W 123°55'0 0.0
2017-Aug-04 03:31N 46°10' W 123°55'0 0.0
2017-Aug-04 03:00N 46°10' W 123°55'0 0.0
2017-Aug-04 02:30N 46°10' W 123°55'0 0.0
2017-Aug-04 02:00N 46°10' W 123°55'0 0.0
2017-Aug-04 01:30N 46°10' W 123°55'0 0.0
2017-Aug-04 01:00N 46°10' W 123°55'0 0.0
2017-Aug-04 00:31N 46°10' W 123°55'0 0.0
2017-Aug-04 00:00N 46°10' W 123°55'0 0.0
2017-Aug-03 23:31N 46°10' W 123°55'0 0.0
2017-Aug-03 23:00N 46°10' W 123°55'0 0.0
2017-Aug-03 22:31N 46°10' W 123°55'0 0.0
2017-Aug-03 22:01N 46°10' W 123°55'0 0.0
2017-Aug-03 21:31N 46°10' W 123°55'0 0.0
2017-Aug-03 21:00N 46°10' W 123°55'0 0.0
2017-Aug-03 20:30N 46°10' W 123°55'0 0.0
2017-Aug-03 20:00N 46°10' W 123°55'0 0.0
2017-Aug-03 19:30N 46°10' W 123°55'0 0.0
2017-Aug-03 19:00N 46°10' W 123°55'0 0.0
2017-Aug-03 18:31N 46°10' W 123°55'0 0.2
2017-Aug-03 18:00N 46°10' W 123°55'0 0.0
2017-Aug-03 17:31N 46°10' W 123°55'0 0.0
2017-Aug-03 17:00N 46°10' W 123°55'0 0.0
2017-Aug-03 16:30N 46°10' W 123°55'0 0.0
2017-Aug-03 16:01N 46°10' W 123°55'0 0.0
2017-Aug-03 15:30N 46°10' W 123°55'0 0.0
2017-Aug-03 15:00N 46°10' W 123°55'0 0.0
2017-Aug-03 14:00N 46°10' W 123°55'0 0.0
2017-Aug-03 13:30N 46°10' W 123°55'0 0.0
2017-Aug-03 13:00N 46°10' W 123°55'0 0.2
2017-Aug-03 12:30N 46°10' W 123°55'0 0.0
2017-Aug-03 12:00N 46°10' W 123°55'0 0.0
2017-Aug-03 11:30N 46°10' W 123°55'0 0.0
2017-Aug-03 11:00N 46°10' W 123°55'0 0.0
2017-Aug-03 10:30N 46°10' W 123°55'0 0.0
2017-Aug-03 10:00N 46°10' W 123°55'0 0.0
2017-Aug-03 09:30N 46°10' W 123°55'0 0.0
2017-Aug-03 09:00N 46°10' W 123°55'0 0.0
2017-Aug-03 08:31N 46°10' W 123°55'0 0.0
2017-Aug-03 08:01N 46°10' W 123°55'0 0.0
2017-Aug-03 07:31N 46°10' W 123°55'0 0.0
2017-Aug-03 07:00N 46°10' W 123°55'0 0.0
2017-Aug-03 06:31N 46°10' W 123°55'0 0.0
2017-Aug-03 06:00N 46°10' W 123°55'0 0.0
2017-Aug-03 05:30N 46°10' W 123°55'0 0.0
2017-Aug-03 05:00N 46°10' W 123°55'0 0.0
2017-Aug-03 04:30N 46°10' W 123°55'0 0.0
2017-Aug-03 04:00N 46°10' W 123°55'0 0.0
2017-Aug-03 03:30N 46°10' W 123°55'0 0.0
2017-Aug-03 03:01N 46°10' W 123°55'0 0.0
2017-Aug-03 02:30N 46°10' W 123°55'0 0.0
2017-Aug-03 02:01N 46°10' W 123°55'0 0.0
2017-Aug-03 01:31N 46°10' W 123°55'0 0.0
2017-Aug-03 01:00N 46°10' W 123°55'0 0.0
2017-Aug-03 00:30N 46°10' W 123°55'0 0.0
2017-Aug-03 00:00N 46°10' W 123°55'0 0.0
2017-Aug-02 23:31N 46°10' W 123°55'0 0.0
2017-Aug-02 23:00N 46°10' W 123°55'0 0.0
2017-Aug-02 22:30N 46°10' W 123°55'0 0.0
2017-Aug-02 22:00N 46°10' W 123°55'0 0.0
2017-Aug-02 21:30N 46°10' W 123°55'0 0.0
2017-Aug-02 21:00N 46°10' W 123°55'  

Dump ship's entire track history